Ridgely, Maryland
Current Conditions -  °F | °C
As of 11:50 AM on Thursday 18 Dec 2014 (Local Time) from KESN Reporting Station
Broken Clouds Broken Clouds  
Wind Chill: 30°   Ceiling: 4000
Heat Index: 39°   Visibility: 10mi
Dew Point: 25°   Wind: 16mph
Humidity: 56%   Direction: 310°NW
Pressure: 30.16"   Gusts: 20mph
Location:  38.95°N, 75.89°W
Report Text: KESN 181650Z 31014G17KT 10SM BKN040 04/M04 A3016
Loading
Personal Weather Stations






























Interactive Weather Map New forecast layout! Learn more

10-Day Weather Forecast

Advertisements
Track Severe Weather on mobile